Time;durP1;ratioP1;P1;durP2;ratioP2;P2;SDS_P1;SDS_P2;PMS_P1;PMS_P2;Temp;Humidity;BMP_temperature;BMP_pressure;BME280_temperature;BME280_humidity;BME280_pressure;Samples;Min_cycle;Max_cycle;Signal;HPM_P1;HPM_P2
2021/05/22 00:00:53;;;;;;;;;;;;;;;12.62;57.05;98938.44;2242123;39;20016;-79
2021/05/22 00:02:24;;;;;;;;;;;;;;;12.62;56.92;98938.44;2240977;39;19936;-79
2021/05/22 00:03:55;;;;;;;;;;;;;;;12.62;56.94;98935.78;2242352;39;19954;-79
2021/05/22 00:05:26;;;;;;;;;;;;;;;12.65;56.96;98945.28;2244831;39;19944;-79
2021/05/22 00:06:59;;;;;;;;;;;;;;;12.64;56.78;98951.66;2248360;39;19936;-79
2021/05/22 00:08:30;;;;;;;;;;;;;;;12.62;56.88;98948.31;2246349;39;19946;-78
2021/05/22 00:10:01;;;;;;;;;;;;;;;12.63;56.69;98950.84;2248091;39;19951;-79
2021/05/22 00:11:34;;;;;;;;;;;;;;;12.61;56.75;98955.56;2247154;39;19931;-80
2021/05/22 00:13:07;;;;;;;;;;;;;;;12.60;56.77;98961.94;2248610;39;20207;-79
2021/05/22 00:14:38;;;;;;;;;;;;;;;12.61;56.70;98962.78;2247063;39;19959;-79
2021/05/22 00:16:09;;;;;;;;;;;;;;;12.61;56.63;98965.47;2248469;39;20303;-79
2021/05/22 00:17:48;;;;;;;;;;;;;;;12.57;56.55;98970.31;2246966;39;20053;-80
2021/05/22 00:19:21;;;;;;;;;;;;;;;12.59;56.62;98967.47;2248372;39;19947;-79
2021/05/22 00:20:52;;;;;;;;;;;;;;;12.60;56.46;98972.66;2242977;39;19942;-79
2021/05/22 00:22:25;;;;;;;;;;;;;;;12.61;56.58;98976.19;2248774;39;19936;-79
2021/05/22 00:24:00;;;;;;;;;;;;;;;12.64;56.45;98968.59;2247533;39;20338;-80
2021/05/22 00:25:31;;;;;;;;;;;;;;;12.62;56.42;98980.50;2248744;39;19939;-79
2021/05/22 00:27:01;;;;;;;;;;;;;;;12.56;56.50;98981.25;2246757;39;20020;-80
2021/05/22 00:28:34;;;;;;;;;;;;;;;12.57;56.51;98989.09;2248480;39;19951;-79
2021/05/22 00:30:06;;;;;;;;;;;;;;;12.57;56.45;98994.47;2246607;39;19932;-80
2021/05/22 00:31:37;;;;;;;;;;;;;;;12.58;56.42;98990.75;2248218;39;19944;-79
2021/05/22 00:33:08;;;;;;;;;;;;;;;12.59;56.23;98991.63;2246749;39;19976;-79
2021/05/22 00:34:39;;;;;;;;;;;;;;;12.62;56.03;98996.59;2248517;39;19935;-80
2021/05/22 00:36:10;;;;;;;;;;;;;;;12.60;56.30;98999.47;2246786;39;20059;-80
2021/05/22 00:37:42;;;;;;;;;;;;;;;12.59;56.66;98994.28;2248925;39;20362;-80
2021/05/22 00:39:17;;;;;;;;;;;;;;;12.52;56.93;98988.81;2240553;39;19966;-79
2021/05/22 00:40:48;;;;;;;;;;;;;;;12.50;57.27;98990.03;2242339;39;20028;-79
2021/05/22 00:42:19;;;;;;;;;;;;;;;12.43;57.57;99008.69;2247414;39;19936;-79
2021/05/22 00:43:51;;;;;;;;;;;;;;;12.38;57.91;99019.09;2248438;39;19943;-80
2021/05/22 00:45:22;;;;;;;;;;;;;;;12.35;58.04;99024.84;2240773;39;19947;-80
2021/05/22 00:46:53;;;;;;;;;;;;;;;12.33;58.32;99025.00;2242428;39;19943;-79
2021/05/22 00:48:24;;;;;;;;;;;;;;;12.29;58.35;99021.84;2240993;39;19940;-81
2021/05/22 00:49:55;;;;;;;;;;;;;;;12.29;58.45;99026.41;2242441;39;19928;-80
2021/05/22 00:51:26;;;;;;;;;;;;;;;12.29;58.44;99031.75;2241240;39;19940;-79
2021/05/22 00:52:57;;;;;;;;;;;;;;;12.32;58.55;99037.59;2242783;39;19940;-79
2021/05/22 00:54:28;;;;;;;;;;;;;;;12.35;58.72;99032.88;2240820;39;20284;-80
2021/05/22 00:56:00;;;;;;;;;;;;;;;12.35;58.76;99024.84;2242406;39;19943;-79
2021/05/22 00:57:31;;;;;;;;;;;;;;;12.35;58.95;99032.88;2241118;39;19972;-79
2021/05/22 00:59:03;;;;;;;;;;;;;;;12.29;59.38;99047.84;2242216;39;19942;-79
2021/05/22 01:00:39;;;;;;;;;;;;;;;12.29;59.35;99039.78;2241081;39;19936;-80
2021/05/22 01:02:11;;;;;;;;;;;;;;;12.28;59.60;99030.91;2242769;39;20358;-79
2021/05/22 01:03:44;;;;;;;;;;;;;;;12.30;59.63;99036.94;2240574;39;20301;-79
2021/05/22 01:05:15;;;;;;;;;;;;;;;12.32;59.76;99036.78;2242767;39;19932;-79
2021/05/22 01:06:46;;;;;;;;;;;;;;;12.38;59.74;99032.50;2240913;39;19985;-80
2021/05/22 01:08:18;;;;;;;;;;;;;;;12.40;59.74;99025.97;2240955;39;19936;-81
2021/05/22 01:09:52;;;;;;;;;;;;;;;12.42;59.83;99034.63;2241754;39;20460;-79
2021/05/22 01:11:27;;;;;;;;;;;;;;;12.40;60.03;99033.16;2241234;39;19944;-80
2021/05/22 01:12:58;;;;;;;;;;;;;;;12.46;60.14;99032.47;2243071;39;19935;-80
2021/05/22 01:14:33;;;;;;;;;;;;;;;12.51;60.07;99032.72;2241374;39;19936;-80
2021/05/22 01:16:05;;;;;;;;;;;;;;;12.55;60.28;99028.69;2245458;39;19951;-80
2021/05/22 01:17:38;;;;;;;;;;;;;;;12.58;60.43;99025.63;2244786;39;19948;-79
2021/05/22 01:19:12;;;;;;;;;;;;;;;12.60;60.54;99042.34;2244266;39;19989;-80
2021/05/22 01:20:46;;;;;;;;;;;;;;;12.62;61.12;99048.38;2242753;39;19935;-81
2021/05/22 01:22:17;;;;;;;;;;;;;;;12.59;61.29;99056.78;2245128;39;19940;-80
2021/05/22 01:23:51;;;;;;;;;;;;;;;12.45;62.08;99052.22;2242244;39;19936;-80
2021/05/22 01:36:42;;;;;;;;;;;;;;;11.77;66.73;99084.97;2234511;39;19939;-82
2021/05/22 01:38:49;;;;;;;;;;;;;;;11.52;68.31;99095.81;2243177;39;19993;-81
2021/05/22 01:40:28;;;;;;;;;;;;;;;11.26;69.72;99112.13;2227831;39;19932;-80
2021/05/22 01:42:20;;;;;;;;;;;;;;;11.12;70.32;99096.81;2238181;39;19940;-80
2021/05/22 01:44:02;;;;;;;;;;;;;;;10.98;71.35;99109.88;2244067;39;19935;-81
2021/05/22 01:45:45;;;;;;;;;;;;;;;10.90;72.08;99128.59;2242820;39;19955;-80
2021/05/22 01:47:19;;;;;;;;;;;;;;;10.81;72.83;99132.28;2243681;39;19964;-81
2021/05/22 01:48:57;;;;;;;;;;;;;;;10.71;73.18;99137.81;2187858;40;20037;-81
2021/05/22 01:52:33;;;;;;;;;;;;;;;10.60;73.85;99128.28;2244047;39;20284;-80
2021/05/22 01:54:10;;;;;;;;;;;;;;;10.53;73.57;99114.75;2246571;39;19943;-81
2021/05/22 01:55:42;;;;;;;;;;;;;;;10.49;73.79;99120.59;2244967;39;19944;-81
2021/05/22 01:57:17;;;;;;;;;;;;;;;10.44;74.06;99127.28;2232225;39;19936;-80
2021/05/22 01:58:57;;;;;;;;;;;;;;;10.36;74.31;99134.44;2241316;39;20229;-82
2021/05/22 02:00:34;;;;;;;;;;;;;;;10.30;74.23;99131.44;2243703;39;20405;-81
2021/05/22 02:02:06;;;;;;;;;;;;;;;10.34;74.16;99131.13;2244664;39;19947;-80
2021/05/22 02:03:53;;;;;;;;;;;;;;;10.29;73.19;99118.25;2243619;39;20005;-81
2021/05/22 02:05:26;;;;;;;;;;;;;;;10.26;72.74;99113.22;2242913;39;19936;-80
2021/05/22 02:07:03;;;;;;;;;;;;;;;10.23;72.75;99102.88;2244750;39;19931;-81
2021/05/22 02:08:42;;;;;;;;;;;;;;;10.28;72.63;99088.00;2234164;39;19944;-81
2021/05/22 02:10:24;;;;;;;;;;;;;;;10.37;72.44;99088.00;2249761;39;20317;-80
2021/05/22 02:12:03;;;;;;;;;;;;;;;10.36;72.44;99092.53;2247274;39;19939;-82
2021/05/22 02:13:58;;;;;;;;;;;;;;;10.29;72.40;99100.38;2252773;39;19936;-81
2021/05/22 02:15:32;;;;;;;;;;;;;;;10.22;72.52;99106.53;2222019;39;20327;-80
2021/05/22 02:19:21;;;;;;;;;;;;;;;10.20;72.74;99104.03;2246572;39;19924;-82
2021/05/22 02:20:54;;;;;;;;;;;;;;;10.20;72.48;99098.69;2242718;39;19948;-81
2021/05/22 02:22:31;;;;;;;;;;;;;;;10.16;72.58;99092.00;2245131;39;19943;-81
2021/05/22 02:24:08;;;;;;;;;;;;;;;10.20;72.51;99108.56;2241508;39;19936;-81
2021/05/22 02:25:40;;;;;;;;;;;;;;;10.22;72.41;99102.03;2243948;39;19940;-80
2021/05/22 02:27:13;;;;;;;;;;;;;;;10.24;72.23;99088.50;2242452;39;19944;-80
2021/05/22 02:28:44;;;;;;;;;;;;;;;10.20;72.08;99095.22;2246047;39;21418;-80
2021/05/22 02:30:17;;;;;;;;;;;;;;;10.21;72.09;99088.84;2248082;39;19935;-80
2021/05/22 02:31:49;;;;;;;;;;;;;;;10.20;72.01;99096.03;2249344;39;19935;-80
2021/05/22 02:33:21;;;;;;;;;;;;;;;10.23;71.89;99093.03;2247045;39;19948;-79
2021/05/22 02:34:53;;;;;;;;;;;;;;;10.26;71.58;99099.88;2250046;39;20264;-81
2021/05/22 02:36:25;;;;;;;;;;;;;;;10.32;71.67;99090.38;2248953;39;19935;-81
2021/05/22 02:38:01;;;;;;;;;;;;;;;10.34;71.44;99085.69;2243270;39;19943;-80
2021/05/22 02:39:33;;;;;;;;;;;;;;;10.35;71.21;99096.19;2239970;39;19942;-80
2021/05/22 02:41:15;;;;;;;;;;;;;;;10.35;71.17;99095.34;2244428;39;19944;-80
2021/05/22 02:42:47;;;;;;;;;;;;;;;10.39;71.17;99094.06;2193740;39;20016;-80
2021/05/22 02:44:29;;;;;;;;;;;;;;;10.36;71.06;99092.53;2243720;39;19943;-81
2021/05/22 02:46:05;;;;;;;;;;;;;;;10.33;71.04;99092.84;2249899;39;19947;-81
2021/05/22 02:47:38;;;;;;;;;;;;;;;10.32;71.05;99098.38;2248966;39;20027;-81
2021/05/22 02:49:10;;;;;;;;;;;;;;;10.30;71.05;99095.84;2250264;39;19936;-80
2021/05/22 02:50:44;;;;;;;;;;;;;;;10.26;70.99;99092.69;2247834;39;20327;-80
2021/05/22 02:52:15;;;;;;;;;;;;;;;10.26;71.01;99089.19;2249309;39;20279;-80
2021/05/22 02:53:48;;;;;;;;;;;;;;;10.29;70.99;99092.34;2248418;39;20293;-81
2021/05/22 02:55:19;;;;;;;;;;;;;;;10.30;70.98;99093.19;2251161;39;19939;-81
2021/05/22 02:57:03;;;;;;;;;;;;;;;10.16;71.01;99089.34;2250895;39;19934;-82
2021/05/22 02:58:36;;;;;;;;;;;;;;;9.99;71.47;99102.66;2254306;39;19951;-79
2021/05/22 03:00:10;;;;;;;;;;;;;;;9.93;71.61;99097.13;2245994;39;19990;-80
2021/05/22 03:01:41;;;;;;;;;;;;;;;9.92;71.77;99099.00;2247654;39;19927;-79
2021/05/22 03:03:17;;;;;;;;;;;;;;;9.94;71.77;99097.00;2244851;39;19940;-81
2021/05/22 03:04:49;;;;;;;;;;;;;;;9.97;71.63;99096.66;2243555;39;19944;-79
2021/05/22 03:06:20;;;;;;;;;;;;;;;10.02;71.52;99084.66;2241377;39;20346;-80
2021/05/22 03:07:51;;;;;;;;;;;;;;;10.08;71.23;99090.19;2242939;39;19950;-80
2021/05/22 03:09:22;;;;;;;;;;;;;;;10.14;70.99;99089.50;2241059;39;19993;-80
2021/05/22 03:10:53;;;;;;;;;;;;;;;10.21;70.75;99083.50;2247981;39;20425;-79
2021/05/22 03:12:25;;;;;;;;;;;;;;;10.25;70.59;99084.84;2247866;39;20310;-80
2021/05/22 03:13:57;;;;;;;;;;;;;;;10.24;70.45;99091.19;2248584;39;19936;-79
2021/05/22 03:15:29;;;;;;;;;;;;;;;10.21;70.51;99094.19;2247694;39;20302;-80
2021/05/22 03:17:00;;;;;;;;;;;;;;;10.21;70.64;99094.19;2249083;39;19946;-80
2021/05/22 03:18:31;;;;;;;;;;;;;;;10.20;70.55;99093.34;2247501;39;20332;-79
2021/05/22 03:20:03;;;;;;;;;;;;;;;10.18;70.71;99102.53;2249226;39;19958;-79
2021/05/22 03:21:34;;;;;;;;;;;;;;;10.17;70.63;99099.00;2247535;39;19976;-79
2021/05/22 03:23:06;;;;;;;;;;;;;;;10.15;70.72;99096.53;2249518;39;19932;-80
2021/05/22 03:24:37;;;;;;;;;;;;;;;10.19;70.75;99104.22;2247161;39;19961;-79
2021/05/22 03:26:08;;;;;;;;;;;;;;;10.17;71.02;99098.19;2248942;39;20246;-80
2021/05/22 03:27:39;;;;;;;;;;;;;;;10.08;71.23;99103.53;2247934;39;19979;-80
2021/05/22 03:29:12;;;;;;;;;;;;;;;10.05;71.26;99108.38;2249181;39;19940;-79
2021/05/22 03:30:43;;;;;;;;;;;;;;;9.99;71.55;99105.34;2247826;39;19948;-79
2021/05/22 03:32:15;;;;;;;;;;;;;;;9.95;71.53;99100.50;2249180;39;19948;-80
2021/05/22 03:33:46;;;;;;;;;;;;;;;9.91;71.56;99112.50;2242018;39;19991;-80
2021/05/22 03:35:17;;;;;;;;;;;;;;;9.87;71.77;99101.28;2241610;39;20285;-79
2021/05/22 03:36:48;;;;;;;;;;;;;;;9.84;71.85;99117.66;2243617;39;19958;-78
2021/05/22 03:38:21;;;;;;;;;;;;;;;9.81;72.05;99116.16;2240478;39;20314;-80
2021/05/22 03:39:59;;;;;;;;;;;;;;;9.80;72.11;99109.16;2243724;39;19940;-79
2021/05/22 03:41:30;;;;;;;;;;;;;;;9.78;72.13;99111.13;2241692;39;19943;-79
2021/05/22 03:43:01;;;;;;;;;;;;;;;9.80;72.17;99117.16;2247398;39;19943;-80
2021/05/22 03:44:41;;;;;;;;;;;;;;;9.84;72.18;99110.47;2239330;39;19942;-80
2021/05/22 03:46:12;;;;;;;;;;;;;;;9.80;72.20;99110.97;2256505;39;19943;-79
2021/05/22 03:47:48;;;;;;;;;;;;;;;9.79;72.33;99117.28;2248445;39;19940;-80
2021/05/22 03:49:21;;;;;;;;;;;;;;;9.87;72.28;99113.81;2250755;39;19943;-82
2021/05/22 03:50:54;;;;;;;;;;;;;;;9.88;72.03;99104.81;2242034;39;19936;-80
2021/05/22 03:52:28;;;;;;;;;;;;;;;9.92;71.78;99112.34;2243615;39;19947;-81
2021/05/22 03:54:01;;;;;;;;;;;;;;;9.96;71.77;99110.19;2251063;39;19939;-80
2021/05/22 03:55:33;;;;;;;;;;;;;;;10.01;71.62;99113.22;2253154;39;19931;-80
2021/05/22 03:57:40;;;;;;;;;;;;;;;10.07;71.39;99109.88;2237510;39;19958;-82
2021/05/22 03:59:15;;;;;;;;;;;;;;;10.07;71.45;99112.53;2248947;39;19947;-82
2021/05/22 04:01:02;;;;;;;;;;;;;;;10.05;71.41;99111.88;2243636;39;19936;-83
2021/05/22 04:02:57;;;;;;;;;;;;;;;9.97;71.45;99109.19;2212307;39;19947;-81
2021/05/22 04:04:29;;;;;;;;;;;;;;;9.95;71.54;99116.50;2232010;39;19947;-80
2021/05/22 04:08:28;;;;;;;;;;;;;;;9.93;71.54;99121.16;2245611;39;20281;-82
2021/05/22 04:10:22;;;;;;;;;;;;;;;9.93;71.63;99119.34;2241732;39;19944;-78
2021/05/22 04:11:59;;;;;;;;;;;;;;;9.96;71.60;99110.19;2242678;39;19943;-79
2021/05/22 04:15:21;;;;;;;;;;;;;;;9.97;71.80;99120.69;2251831;39;19980;-81
2021/05/22 04:28:57;;;;;;;;;;;;;;;10.34;71.35;99107.88;2226034;40;19984;-80
2021/05/22 04:30:52;;;;;;;;;;;;;;;10.40;71.19;99101.09;2225119;39;19940;-81
2021/05/22 04:32:23;;;;;;;;;;;;;;;10.49;70.89;99107.25;2219737;40;19933;-79
2021/05/22 04:33:59;;;;;;;;;;;;;;;10.55;70.46;99114.59;2233414;40;19994;-79
2021/05/22 04:35:31;;;;;;;;;;;;;;;10.57;70.16;99115.28;2221900;40;20019;-79
2021/05/22 04:37:08;;;;;;;;;;;;;;;10.53;70.28;99120.09;2224655;40;19945;-80
2021/05/22 04:38:42;;;;;;;;;;;;;;;10.48;70.75;99117.09;2226355;40;19949;-79
2021/05/22 04:40:37;;;;;;;;;;;;;;;10.35;71.77;99111.38;2222412;40;19933;-83
2021/05/22 04:42:13;;;;;;;;;;;;;;;10.22;72.45;99117.22;2222921;40;19945;-83
2021/05/22 04:44:11;;;;;;;;;;;;;;;10.15;72.59;99120.56;2223328;40;19948;-81
2021/05/22 05:03:09;;;;;;;;;;;;;;;10.31;72.57;99148.28;2197033;40;19942;-83
2021/05/22 05:07:21;;;;;;;;;;;;;;;10.25;71.95;99152.44;2217189;40;19926;-86
2021/05/22 05:12:09;;;;;;;;;;;;;;;10.46;71.78;99143.16;2226472;40;19949;-82
2021/05/22 05:13:40;;;;;;;;;;;;;;;10.51;71.47;99153.34;2228177;40;19963;-83
2021/05/22 05:15:12;;;;;;;;;;;;;;;10.49;71.22;99158.00;2202244;40;19946;-83
2021/05/22 05:16:43;;;;;;;;;;;;;;;10.50;71.15;99155.19;2196588;40;19957;-80
2021/05/22 05:18:17;;;;;;;;;;;;;;;10.55;71.09;99152.03;2176198;40;19965;-81
2021/05/22 05:20:00;;;;;;;;;;;;;;;10.58;70.77;99154.38;2208510;40;19945;-82
2021/05/22 05:21:32;;;;;;;;;;;;;;;10.61;70.67;99154.88;2154791;40;19938;-82
2021/05/22 05:23:04;;;;;;;;;;;;;;;10.68;70.39;99165.72;2204366;40;19978;-80
2021/05/22 05:24:35;;;;;;;;;;;;;;;10.76;70.32;99157.72;2215367;40;19937;-81
2021/05/22 05:26:13;;;;;;;;;;;;;;;10.76;69.86;99152.38;2219311;40;20559;-81
2021/05/22 05:27:44;;;;;;;;;;;;;;;10.81;69.82;99159.88;2201219;40;19941;-80
2021/05/22 05:29:16;;;;;;;;;;;;;;;10.84;69.72;99158.69;2217339;40;20290;-80
2021/05/22 05:30:47;;;;;;;;;;;;;;;10.83;69.55;99165.88;2205048;40;19957;-79
2021/05/22 05:32:18;;;;;;;;;;;;;;;10.86;69.47;99167.41;2224211;40;19944;-80
2021/05/22 05:33:50;;;;;;;;;;;;;;;10.93;69.45;99163.84;2222465;40;19948;-78
2021/05/22 05:35:21;;;;;;;;;;;;;;;11.06;69.21;99163.34;2225703;40;19951;-79
2021/05/22 05:36:53;;;;;;;;;;;;;;;11.16;68.92;99165.84;2227770;40;20502;-79
2021/05/22 05:38:24;;;;;;;;;;;;;;;11.24;68.47;99159.66;2224186;40;19945;-79
2021/05/22 05:39:55;;;;;;;;;;;;;;;11.26;68.10;99154.94;2226122;40;19995;-79
2021/05/22 05:45:10;;;;;;;;;;;;;;;11.45;67.45;99155.56;2224025;40;19937;-80
2021/05/22 05:49:14;;;;;;;;;;;;;;;11.45;66.94;99158.25;2218645;40;19933;-80
2021/05/22 05:50:56;;;;;;;;;;;;;;;11.41;66.98;99162.28;2218295;40;19937;-81
2021/05/22 05:52:27;;;;;;;;;;;;;;;11.42;66.85;99155.94;2226084;40;19945;-80
2021/05/22 05:53:58;;;;;;;;;;;;;;;11.43;66.37;99158.41;2225941;40;19989;-78
2021/05/22 05:55:29;;;;;;;;;;;;;;;11.37;66.33;99154.59;2227627;40;19949;-76
2021/05/22 05:57:01;;;;;;;;;;;;;;;11.39;66.38;99154.41;2224190;40;20014;-78
2021/05/22 05:58:32;;;;;;;;;;;;;;;11.45;66.41;99155.56;2225740;40;19947;-79
2021/05/22 06:00:04;;;;;;;;;;;;;;;11.46;66.10;99157.22;2220186;40;19998;-78
2021/05/22 06:01:36;;;;;;;;;;;;;;;11.42;65.77;99161.28;2227662;40;19952;-78
2021/05/22 06:03:07;;;;;;;;;;;;;;;11.45;65.86;99159.09;2222673;40;19968;-78
2021/05/22 06:04:38;;;;;;;;;;;;;;;11.45;65.78;99158.25;2224369;40;19940;-78
2021/05/22 06:06:10;;;;;;;;;;;;;;;11.43;65.31;99149.56;2222217;40;19948;-78
2021/05/22 06:07:41;;;;;;;;;;;;;;;11.45;65.25;99156.41;2224248;40;19937;-79
2021/05/22 06:09:12;;;;;;;;;;;;;;;11.47;65.27;99159.75;2204317;40;20273;-80
2021/05/22 06:10:47;;;;;;;;;;;;;;;11.53;65.15;99150.16;2225552;40;19944;-79
2021/05/22 06:12:18;;;;;;;;;;;;;;;11.60;65.11;99143.16;2225026;40;19947;-80
2021/05/22 06:13:48;;;;;;;;;;;;;;;11.61;64.55;99160.88;2232206;39;19928;-81
2021/05/22 06:15:24;;;;;;;;;;;;;;;11.67;64.42;99154.81;2231794;40;19933;-77
2021/05/22 06:16:55;;;;;;;;;;;;;;;11.70;63.88;99153.63;2234898;40;19936;-80
2021/05/22 06:18:29;;;;;;;;;;;;;;;11.73;63.32;99157.78;2233102;40;19939;-79
2021/05/22 06:20:00;;;;;;;;;;;;;;;11.81;63.27;99160.44;2232523;40;20329;-78
2021/05/22 06:21:35;;;;;;;;;;;;;;;11.92;63.10;99154.69;2229700;40;19956;-79
2021/05/22 06:23:06;;;;;;;;;;;;;;;12.01;62.64;99159.03;2234256;40;19940;-79
2021/05/22 06:24:38;;;;;;;;;;;;;;;12.02;62.34;99154.53;2232801;40;19994;-79
2021/05/22 06:26:11;;;;;;;;;;;;;;;12.01;62.27;99167.06;2233959;40;19940;-80
2021/05/22 06:27:42;;;;;;;;;;;;;;;12.04;62.21;99165.91;2229172;40;19983;-79
2021/05/22 06:29:13;;;;;;;;;;;;;;;12.02;62.25;99163.38;2234949;40;20071;-79
2021/05/22 06:30:44;;;;;;;;;;;;;;;12.03;62.08;99161.56;2232622;40;19935;-78
2021/05/22 06:32:17;;;;;;;;;;;;;;;12.09;62.33;99160.03;2229536;40;20026;-80
2021/05/22 06:33:48;;;;;;;;;;;;;;;12.13;62.33;99164.00;2227701;40;19944;-79
2021/05/22 06:35:19;;;;;;;;;;;;;;;12.15;61.63;99161.97;2231673;40;19940;-79
2021/05/22 06:36:53;;;;;;;;;;;;;;;12.16;60.84;99159.13;2231619;40;19964;-79
2021/05/22 06:38:24;;;;;;;;;;;;;;;12.21;60.74;99161.25;2232139;40;20357;-79
2021/05/22 06:39:55;;;;;;;;;;;;;;;12.30;60.68;99170.91;2232291;40;19982;-80
2021/05/22 06:41:26;;;;;;;;;;;;;;;12.38;59.70;99159.31;2231581;40;19940;-79
2021/05/22 06:42:57;;;;;;;;;;;;;;;12.42;59.22;99152.56;2231318;40;19943;-79
2021/05/22 06:44:32;;;;;;;;;;;;;;;12.54;59.37;99155.69;2228420;40;19937;-78
2021/05/22 06:46:46;;;;;;;;;;;;;;;12.69;58.59;99149.53;2228096;40;19953;-79
2021/05/22 06:47:57;;;;;;;;;;;;;;;12.77;57.61;99154.81;2229373;40;19940;-78
2021/05/22 06:49:31;;;;;;;;;;;;;;;12.80;57.17;99152.59;2234019;40;19932;-79
2021/05/22 06:51:02;;;;;;;;;;;;;;;12.83;56.90;99151.44;2231248;40;19948;-83
2021/05/22 06:52:34;;;;;;;;;;;;;;;12.85;56.42;99146.69;2234197;40;19967;-80
2021/05/22 06:54:05;;;;;;;;;;;;;;;12.94;56.86;99150.97;2210480;40;20383;-80
2021/05/22 06:55:36;;;;;;;;;;;;;;;12.97;56.40;99154.31;2226324;40;20046;-79
2021/05/22 06:57:08;;;;;;;;;;;;;;;12.93;55.43;99143.97;2227840;40;19953;-79
2021/05/22 06:58:39;;;;;;;;;;;;;;;12.94;55.42;99148.28;2230668;40;19947;-79
2021/05/22 07:00:10;;;;;;;;;;;;;;;12.99;55.02;99137.00;2238490;40;19928;-80
2021/05/22 07:01:41;;;;;;;;;;;;;;;13.08;54.06;99143.97;2234422;40;19939;-79
2021/05/22 07:03:12;;;;;;;;;;;;;;;13.14;53.73;99138.91;2232699;40;19951;-79
2021/05/22 07:04:42;;;;;;;;;;;;;;;13.06;52.84;99143.34;2232077;40;19932;-79
2021/05/22 07:06:13;;;;;;;;;;;;;;;13.08;53.08;99143.97;2226518;40;19995;-80
2021/05/22 07:07:45;;;;;;;;;;;;;;;13.16;52.48;99143.06;2233329;40;20417;-80
2021/05/22 07:09:16;;;;;;;;;;;;;;;13.33;52.45;99140.19;2233228;40;20401;-80
2021/05/22 07:10:48;;;;;;;;;;;;;;;13.40;52.31;99143.84;2232492;40;19929;-80
2021/05/22 07:12:19;;;;;;;;;;;;;;;13.33;52.44;99137.50;2238785;40;19951;-79
2021/05/22 07:13:50;;;;;;;;;;;;;;;13.29;53.10;99146.97;2237252;40;19940;-78
2021/05/22 07:15:22;;;;;;;;;;;;;;;13.43;52.94;99159.56;2234070;40;19940;-79
2021/05/22 07:16:55;;;;;;;;;;;;;;;13.54;52.12;99153.75;2234227;40;19944;-79
2021/05/22 07:18:26;;;;;;;;;;;;;;;13.53;51.00;99148.56;2233171;40;19990;-80
2021/05/22 07:19:57;;;;;;;;;;;;;;;13.54;51.12;99151.06;2234159;40;20015;-81
2021/05/22 07:21:28;;;;;;;;;;;;;;;13.61;51.07;99155.66;2230880;40;19935;-79
2021/05/22 07:22:59;;;;;;;;;;;;;;;13.64;50.52;99155.31;2233206;40;20157;-80
2021/05/22 07:24:30;;;;;;;;;;;;;;;13.56;50.58;99151.72;2231630;40;19948;-79
2021/05/22 07:26:01;;;;;;;;;;;;;;;13.55;50.61;99157.28;2233539;40;19948;-78
2021/05/22 07:27:35;;;;;;;;;;;;;;;13.61;50.28;99153.00;2231561;40;19944;-78
2021/05/22 07:29:06;;;;;;;;;;;;;;;13.75;50.29;99154.84;2234175;40;19937;-80
2021/05/22 07:30:37;;;;;;;;;;;;;;;13.89;50.46;99153.16;2231319;40;19939;-79
2021/05/22 07:32:09;;;;;;;;;;;;;;;14.01;49.23;99150.81;2234193;40;19944;-80
2021/05/22 07:33:41;;;;;;;;;;;;;;;13.97;48.92;99144.16;2232683;40;19944;-80
2021/05/22 07:35:13;;;;;;;;;;;;;;;13.92;48.79;99152.78;2234028;40;19976;-78
2021/05/22 07:36:44;;;;;;;;;;;;;;;13.89;48.77;99153.16;2230987;40;19939;-79
2021/05/22 07:38:16;;;;;;;;;;;;;;;14.03;48.83;99138.03;2234273;40;19940;-79
2021/05/22 07:39:47;;;;;;;;;;;;;;;13.98;48.39;99151.19;2231977;40;19932;-79
2021/05/22 07:41:18;;;;;;;;;;;;;;;13.89;48.89;99148.59;2233088;40;19986;-78
2021/05/22 07:42:50;;;;;;;;;;;;;;;13.76;49.47;99148.44;2235980;39;19947;-79
2021/05/22 07:44:21;;;;;;;;;;;;;;;13.86;48.89;99148.16;2232878;40;19932;-80
2021/05/22 07:45:56;;;;;;;;;;;;;;;13.96;48.91;99142.50;2233843;40;19940;-79
2021/05/22 07:47:27;;;;;;;;;;;;;;;14.05;49.02;99141.34;2233026;40;20283;-80
2021/05/22 07:48:58;;;;;;;;;;;;;;;14.05;48.59;99146.72;2233693;40;19940;-80
2021/05/22 07:50:30;;;;;;;;;;;;;;;14.11;48.29;99151.34;2230811;40;19978;-79
2021/05/22 07:52:01;;;;;;;;;;;;;;;14.11;48.41;99150.50;2233393;40;19940;-79
2021/05/22 07:53:33;;;;;;;;;;;;;;;14.14;48.35;99147.44;2229416;40;19948;-79
2021/05/22 07:55:04;;;;;;;;;;;;;;;14.02;48.10;99149.78;2230186;40;20387;-79
2021/05/22 07:56:36;;;;;;;;;;;;;;;14.04;47.97;99145.88;2228064;40;20468;-79
2021/05/22 07:58:07;;;;;;;;;;;;;;;14.15;47.20;99147.25;2227793;40;19945;-81
2021/05/22 07:59:38;;;;;;;;;;;;;;;14.12;47.12;99150.31;2232015;40;20232;-79
2021/05/22 08:01:09;;;;;;;;;;;;;;;14.24;47.04;99141.75;2234520;40;19937;-79
2021/05/22 08:02:40;;;;;;;;;;;;;;;14.36;46.48;99142.91;2229765;40;19947;-79
2021/05/22 08:04:10;;;;;;;;;;;;;;;14.30;47.20;99147.22;2228388;40;19948;-79
2021/05/22 08:05:41;;;;;;;;;;;;;;;14.33;47.67;99146.00;2229199;40;20303;-79
2021/05/22 08:07:13;;;;;;;;;;;;;;;14.29;46.96;99150.06;2234082;40;19986;-80
2021/05/22 08:08:46;;;;;;;;;;;;;;;14.22;46.09;99162.63;2231679;40;19964;-79
2021/05/22 08:10:18;;;;;;;;;;;;;;;14.14;46.29;99156.34;2234347;40;19940;-79
2021/05/22 08:11:49;;;;;;;;;;;;;;;14.15;46.46;99163.38;2234913;40;19947;-79
2021/05/22 08:13:20;;;;;;;;;;;;;;;14.13;45.95;99156.50;2232696;40;19940;-80
2021/05/22 08:14:51;;;;;;;;;;;;;;;14.09;45.68;99156.06;2232597;40;19959;-79
2021/05/22 08:16:22;;;;;;;;;;;;;;;14.22;45.79;99151.88;2234395;40;20007;-79
2021/05/22 08:17:54;;;;;;;;;;;;;;;14.43;44.61;99138.44;2232115;40;19944;-79
2021/05/22 08:19:25;;;;;;;;;;;;;;;14.46;44.83;99153.34;2232702;40;19933;-79
2021/05/22 08:20:57;;;;;;;;;;;;;;;14.71;44.85;99145.75;2233711;40;19928;-79
2021/05/22 08:22:28;;;;;;;;;;;;;;;15.00;44.64;99143.06;2235095;39;19941;-78
2021/05/22 08:24:00;;;;;;;;;;;;;;;15.03;42.68;99148.88;2233388;39;19941;-78
2021/05/22 08:25:31;;;;;;;;;;;;;;;14.96;42.77;99148.00;2235224;39;19941;-78
2021/05/22 08:27:02;;;;;;;;;;;;;;;14.90;42.25;99143.44;2233591;40;19932;-79
2021/05/22 08:28:33;;;;;;;;;;;;;;;14.99;42.15;99139.56;2234245;40;19944;-79
2021/05/22 08:30:05;;;;;;;;;;;;;;;14.98;42.81;99135.19;2233185;40;19939;-79
2021/05/22 08:31:36;;;;;;;;;;;;;;;15.02;42.87;99141.84;2234150;40;20190;-80
2021/05/22 08:33:07;;;;;;;;;;;;;;;15.08;42.99;99138.38;2233006;40;19928;-78
2021/05/22 08:34:39;;;;;;;;;;;;;;;15.08;42.21;99140.22;2234207;40;19947;-80
2021/05/22 08:36:11;;;;;;;;;;;;;;;14.94;42.20;99140.16;2231143;40;19928;-80
2021/05/22 08:37:42;;;;;;;;;;;;;;;14.88;42.65;99132.84;2234265;40;19948;-80
2021/05/22 08:39:14;;;;;;;;;;;;;;;14.84;42.93;99139.66;2232936;40;19940;-78
2021/05/22 08:40:45;;;;;;;;;;;;;;;15.05;42.36;99135.25;2234503;40;20125;-79
2021/05/22 08:42:17;;;;;;;;;;;;;;;15.12;42.50;99136.94;2233181;40;19933;-78
2021/05/22 08:43:48;;;;;;;;;;;;;;;15.25;42.49;99135.38;2234574;40;20441;-80
2021/05/22 08:45:21;;;;;;;;;;;;;;;15.22;41.03;99131.22;2231884;40;19998;-78
2021/05/22 08:46:52;;;;;;;;;;;;;;;15.09;41.11;99126.59;2234410;40;19936;-80
2021/05/22 08:48:23;;;;;;;;;;;;;;;14.96;40.84;99134.56;2232408;40;19948;-79
2021/05/22 08:49:54;;;;;;;;;;;;;;;14.77;40.97;99136.91;2234316;40;19932;-80
2021/05/22 08:51:25;;;;;;;;;;;;;;;14.62;41.31;99136.13;2232264;40;19948;-77
2021/05/22 08:52:56;;;;;;;;;;;;;;;14.72;40.83;99133.97;2234446;40;19940;-78
2021/05/22 08:54:28;;;;;;;;;;;;;;;14.98;39.87;99127.13;2232958;40;19932;-77
2021/05/22 08:55:59;;;;;;;;;;;;;;;15.37;38.74;99125.72;2234263;40;19940;-79
2021/05/22 08:57:30;;;;;;;;;;;;;;;15.53;38.42;99123.72;2232335;40;19929;-79
2021/05/22 08:59:01;;;;;;;;;;;;;;;15.69;38.15;99117.19;2233820;40;19925;-78
2021/05/22 09:00:38;;;;;;;;;;;;;;;15.95;37.74;99118.31;2232966;40;19932;-80
2021/05/22 09:02:10;;;;;;;;;;;;;;;16.14;36.75;99122.13;2233929;40;19939;-81
2021/05/22 09:03:43;;;;;;;;;;;;;;;16.17;35.94;99114.47;2234743;40;19928;-81
2021/05/22 09:05:19;;;;;;;;;;;;;;;16.18;36.36;99123.38;2232668;40;19939;-81
2021/05/22 09:07:00;;;;;;;;;;;;;;;16.19;36.53;99125.88;2232893;40;19977;-81
2021/05/22 09:08:32;;;;;;;;;;;;;;;16.30;35.64;99121.75;2231645;40;19944;-81